createdAt,value
2023-02-12T00:02:03.278Z,12.43
2023-02-12T00:04:33.166Z,12.93
2023-02-12T00:07:05.543Z,12.20
2023-02-12T00:09:35.407Z,10.37
2023-02-12T00:12:05.469Z,14.17
2023-02-12T00:14:35.231Z,9.87
2023-02-12T00:17:04.986Z,13.07
2023-02-12T00:19:34.846Z,12.50
2023-02-12T00:22:07.201Z,14.00
2023-02-12T00:24:36.982Z,13.37
2023-02-12T00:27:06.835Z,10.17
2023-02-12T00:29:36.632Z,9.60
2023-02-12T00:32:06.412Z,8.93
2023-02-12T00:34:36.259Z,10.97
2023-02-12T00:37:08.831Z,9.67
2023-02-12T00:39:39.321Z,12.47
2023-02-12T00:42:09.291Z,11.33
2023-02-12T00:44:39.197Z,15.00
2023-02-12T00:47:08.965Z,12.07
2023-02-12T00:49:38.731Z,17.23
2023-02-12T00:52:11.355Z,15.90
2023-02-12T00:54:41.319Z,12.13
2023-02-12T00:57:11.089Z,17.33
2023-02-12T00:59:42.405Z,16.97
2023-02-12T01:02:12.191Z,18.03
2023-02-12T01:04:42.102Z,21.20
2023-02-12T01:07:14.684Z,16.27
2023-02-12T01:09:44.467Z,27.80
2023-02-12T01:12:14.248Z,22.27
2023-02-12T01:14:44.007Z,16.13
2023-02-12T01:17:13.895Z,21.07
2023-02-12T01:19:43.685Z,21.93
2023-02-12T01:22:16.106Z,17.27
2023-02-12T01:24:46.176Z,20.20
2023-02-12T01:27:16.008Z,16.53
2023-02-12T01:29:45.997Z,19.83
2023-02-12T01:32:15.841Z,17.27
2023-02-12T01:34:45.635Z,18.50
2023-02-12T01:37:18.020Z,19.93
2023-02-12T01:39:47.771Z,16.93
2023-02-12T01:42:19.114Z,13.43
2023-02-12T01:45:09.534Z,18.43
2023-02-12T01:47:39.270Z,22.43
2023-02-12T01:50:13.449Z,25.93
2023-02-12T01:52:50.783Z,21.80
2023-02-12T01:55:22.395Z,18.20
2023-02-12T01:57:52.962Z,14.77
2023-02-12T02:00:25.603Z,21.17
2023-02-12T02:02:58.422Z,23.93
2023-02-12T02:05:34.177Z,16.93
2023-02-12T02:08:07.032Z,20.97
2023-02-12T02:10:36.785Z,14.93
2023-02-12T02:13:19.192Z,34.97
2023-02-12T02:15:52.378Z,22.03
2023-02-12T02:18:28.527Z,23.80
2023-02-12T02:21:30.193Z,23.50
2023-02-12T02:24:20.942Z,25.27
2023-02-12T02:27:14.220Z,21.73
2023-02-12T02:30:15.564Z,16.00
2023-02-12T02:32:52.923Z,19.73
2023-02-12T02:35:30.582Z,39.27
2023-02-12T02:38:10.667Z,23.53
2023-02-12T02:40:48.552Z,25.30
2023-02-12T02:43:22.193Z,27.30
2023-02-12T02:45:58.822Z,51.37
2023-02-12T02:48:33.985Z,21.57
2023-02-12T02:51:07.678Z,27.20
2023-02-12T02:53:42.611Z,34.80
2023-02-12T02:56:17.746Z,20.97
2023-02-12T02:58:51.523Z,37.37
2023-02-12T03:01:27.134Z,15.50
2023-02-12T03:04:04.758Z,23.87
2023-02-12T03:06:40.639Z,23.53
2023-02-12T03:09:18.715Z,20.43
2023-02-12T03:11:51.002Z,22.93
2023-02-12T03:14:25.071Z,30.63
2023-02-12T03:17:01.470Z,14.47
2023-02-12T03:19:39.051Z,20.60
2023-02-12T03:22:12.167Z,23.20
2023-02-12T03:24:46.023Z,14.70
2023-02-12T03:27:22.518Z,19.20
2023-02-12T03:29:52.428Z,16.47
2023-02-12T03:32:33.638Z,38.43
2023-02-12T03:35:13.146Z,20.87
2023-02-12T03:37:49.439Z,21.90
2023-02-12T03:40:23.597Z,23.07
2023-02-12T03:43:00.721Z,18.40
2023-02-12T03:45:43.469Z,29.43
2023-02-12T03:48:23.192Z,27.80
2023-02-12T03:50:57.404Z,35.10
2023-02-12T03:53:28.682Z,17.27
2023-02-12T03:56:04.824Z,24.00
2023-02-12T03:58:38.411Z,19.00
2023-02-12T04:01:08.852Z,19.13
2023-02-12T04:03:41.992Z,16.93
2023-02-12T04:06:23.258Z,22.60
2023-02-12T04:08:53.089Z,33.17
2023-02-12T04:11:32.404Z,14.73
2023-02-12T04:14:25.640Z,28.10
2023-02-12T04:17:03.051Z,24.43
2023-02-12T04:19:43.155Z,17.07
2023-02-12T04:22:26.427Z,34.23
2023-02-12T04:25:09.958Z,38.07
2023-02-12T04:27:50.918Z,36.53
2023-02-12T04:30:25.611Z,20.30
2023-02-12T04:33:02.474Z,20.50
2023-02-12T04:35:39.665Z,27.03
2023-02-12T04:38:14.418Z,20.33
2023-02-12T04:40:45.518Z,20.60
2023-02-12T04:43:15.301Z,27.83
2023-02-12T04:45:45.354Z,36.90
2023-02-12T04:48:15.163Z,23.17
2023-02-12T04:50:47.525Z,16.87
2023-02-12T04:53:17.423Z,20.30
2023-02-12T04:55:47.822Z,13.20
2023-02-12T04:58:17.593Z,13.03
2023-02-12T05:00:47.499Z,14.73
2023-02-12T05:03:17.262Z,11.07
2023-02-12T05:05:49.764Z,10.90
2023-02-12T05:08:19.531Z,13.90
2023-02-12T05:10:49.289Z,9.37
2023-02-12T05:13:19.026Z,6.43
2023-02-12T05:15:48.791Z,8.57
2023-02-12T05:18:18.642Z,10.53
2023-02-12T05:20:58.473Z,21.53
2023-02-12T05:23:30.089Z,23.97
2023-02-12T05:26:02.458Z,8.80
2023-02-12T05:28:32.693Z,10.87
2023-02-12T05:31:03.677Z,5.20
2023-02-12T05:33:33.769Z,10.50
2023-02-12T05:36:12.517Z,9.30
2023-02-12T05:38:42.806Z,10.27
2023-02-12T05:41:14.596Z,7.90
2023-02-12T05:43:45.616Z,6.17
2023-02-12T05:46:16.745Z,10.40
2023-02-12T05:48:46.534Z,3.00
2023-02-12T05:51:22.226Z,12.50
2023-02-12T05:53:52.965Z,7.47
2023-02-12T05:56:24.298Z,9.90
2023-02-12T05:58:57.151Z,5.97
2023-02-12T06:01:31.430Z,10.67
2023-02-12T06:04:02.642Z,7.23
2023-02-12T06:06:36.522Z,7.30
2023-02-12T06:09:06.424Z,5.93
2023-02-12T06:11:36.199Z,4.80
2023-02-12T06:14:06.525Z,22.13
2023-02-12T06:16:37.818Z,4.00
2023-02-12T06:19:09.417Z,10.60
2023-02-12T06:21:41.904Z,4.40
2023-02-12T06:24:12.895Z,9.57
2023-02-12T06:26:42.787Z,5.73
2023-02-12T06:29:13.376Z,7.13
2023-02-12T06:31:43.511Z,8.33
2023-02-12T06:34:18.185Z,3.53
2023-02-12T06:36:51.256Z,7.33
2023-02-12T06:39:21.014Z,20.63
2023-02-12T06:41:50.833Z,5.07
2023-02-12T06:44:20.610Z,6.77
2023-02-12T06:46:50.440Z,5.20
2023-02-12T06:49:20.226Z,10.47
2023-02-12T06:51:52.588Z,7.00
2023-02-12T06:54:22.374Z,14.80
2023-02-12T06:56:52.144Z,8.37
2023-02-12T06:59:22.033Z,6.47
2023-02-12T07:01:52.004Z,12.17
2023-02-12T07:04:21.853Z,9.23
2023-02-12T07:06:54.805Z,7.73
2023-02-12T07:09:24.657Z,10.83
2023-02-12T07:11:56.822Z,10.67
2023-02-12T07:14:26.839Z,9.20
2023-02-12T07:16:57.447Z,9.70
2023-02-12T07:19:27.517Z,10.70
2023-02-12T07:22:00.124Z,9.93
2023-02-12T07:24:30.031Z,13.37
2023-02-12T07:26:59.801Z,14.33
2023-02-12T07:29:29.550Z,12.90
2023-02-12T07:31:59.442Z,11.63
2023-02-12T07:34:29.329Z,13.93
2023-02-12T07:37:01.731Z,12.83
2023-02-12T07:39:31.555Z,15.83
2023-02-12T07:42:01.512Z,12.47
2023-02-12T07:44:32.494Z,15.30
2023-02-12T07:47:03.850Z,11.37
2023-02-12T07:49:33.669Z,14.93
2023-02-12T07:52:06.199Z,14.33
2023-02-12T07:54:36.191Z,13.77
2023-02-12T07:57:06.226Z,17.00
2023-02-12T07:59:36.236Z,14.90
2023-02-12T08:02:06.065Z,15.17
2023-02-12T08:04:35.911Z,14.33
2023-02-12T08:07:08.280Z,16.20
2023-02-12T08:09:38.275Z,15.97
2023-02-12T08:12:08.538Z,18.83
2023-02-12T08:14:38.397Z,15.97
2023-02-12T08:17:08.821Z,15.53
2023-02-12T08:19:38.927Z,16.20
2023-02-12T08:22:11.611Z,16.33
2023-02-12T08:24:42.596Z,16.13
2023-02-12T08:27:12.386Z,14.80
2023-02-12T08:29:42.167Z,17.70
2023-02-12T08:32:14.562Z,18.00
2023-02-12T08:34:44.737Z,16.70
2023-02-12T08:37:17.110Z,16.93
2023-02-12T08:39:46.919Z,16.23
2023-02-12T08:42:16.687Z,16.17
2023-02-12T08:44:46.447Z,17.13
2023-02-12T08:47:16.218Z,17.90
2023-02-12T08:49:46.014Z,16.67
2023-02-12T08:52:19.608Z,18.17
2023-02-12T08:54:49.520Z,19.37
2023-02-12T08:57:19.272Z,18.47
2023-02-12T08:59:49.221Z,21.83
2023-02-12T09:02:19.361Z,17.50
2023-02-12T09:04:49.173Z,21.37
2023-02-12T09:07:21.564Z,18.50
2023-02-12T09:09:51.351Z,18.60
2023-02-12T09:12:21.154Z,19.07
2023-02-12T09:14:52.022Z,18.10
2023-02-12T09:17:21.840Z,17.00
2023-02-12T09:19:51.570Z,19.03
2023-02-12T09:22:23.923Z,17.13
2023-02-12T09:24:53.676Z,18.13
2023-02-12T09:27:23.508Z,20.23
2023-02-12T09:29:53.267Z,20.80
2023-02-12T09:32:23.014Z,23.83
2023-02-12T09:34:52.799Z,20.30
2023-02-12T09:37:25.160Z,20.23
2023-02-12T09:39:54.944Z,18.70
2023-02-12T09:42:37.972Z,20.00
2023-02-12T09:45:16.729Z,19.83
2023-02-12T09:47:54.449Z,21.10
2023-02-12T09:50:45.966Z,20.13
2023-02-12T09:53:26.062Z,18.07
2023-02-12T09:55:56.243Z,20.60
2023-02-12T09:58:35.668Z,20.27
2023-02-12T10:01:14.755Z,19.73
2023-02-12T10:03:46.300Z,23.17
2023-02-12T10:06:19.847Z,20.60
2023-02-12T10:09:17.983Z,24.60
2023-02-12T10:11:59.657Z,24.63
2023-02-12T10:14:53.835Z,23.53
2023-02-12T10:17:36.222Z,28.67
2023-02-12T10:20:35.614Z,24.77
2023-02-12T10:23:23.343Z,23.63
2023-02-12T10:25:59.416Z,25.63
2023-02-12T10:28:33.435Z,22.93
2023-02-12T10:31:06.502Z,21.13
2023-02-12T10:33:40.248Z,20.90
2023-02-12T10:36:22.707Z,23.20
2023-02-12T10:38:57.436Z,22.50
2023-02-12T10:41:31.375Z,19.33
2023-02-12T10:44:01.287Z,21.13
2023-02-12T10:46:34.047Z,23.13
2023-02-12T10:49:04.137Z,20.07
2023-02-12T10:51:59.316Z,19.97
2023-02-12T10:54:46.657Z,20.47
2023-02-12T10:57:27.695Z,20.40
2023-02-12T11:00:00.070Z,19.20
2023-02-12T11:02:32.821Z,17.97
2023-02-12T11:05:18.566Z,19.30
2023-02-12T11:07:54.257Z,19.27
2023-02-12T11:10:24.923Z,21.57
2023-02-12T11:12:58.504Z,21.70
2023-02-12T11:15:31.424Z,17.87
2023-02-12T11:18:05.682Z,15.93
2023-02-12T11:20:41.355Z,14.83
2023-02-12T11:23:27.324Z,15.27
2023-02-12T11:26:00.491Z,12.23
2023-02-12T11:28:34.396Z,12.60
2023-02-12T11:31:07.041Z,12.37
2023-02-12T11:33:38.126Z,10.07
2023-02-12T11:36:18.184Z,12.37
2023-02-12T11:38:54.569Z,9.73
2023-02-12T11:41:29.528Z,10.10
2023-02-12T11:44:02.008Z,11.33
2023-02-12T11:46:32.014Z,13.70
2023-02-12T11:49:02.169Z,13.77
2023-02-12T11:51:34.823Z,12.87
2023-02-12T11:54:06.933Z,11.47
2023-02-12T11:56:45.641Z,14.00
2023-02-12T11:59:30.461Z,15.50
2023-02-12T12:02:04.851Z,14.53
2023-02-12T12:04:37.480Z,13.90
2023-02-12T12:07:15.518Z,14.87
2023-02-12T12:09:50.413Z,13.13
2023-02-12T12:12:24.774Z,13.43
2023-02-12T12:15:14.711Z,13.07
2023-02-12T12:18:02.066Z,13.60
2023-02-12T12:20:39.532Z,15.67
2023-02-12T12:23:14.074Z,15.07
2023-02-12T12:25:49.366Z,16.20
2023-02-12T12:28:32.064Z,10.83
2023-02-12T12:31:17.563Z,11.23
2023-02-12T12:33:50.759Z,11.33
2023-02-12T12:37:05.448Z,11.83
2023-02-12T12:39:39.567Z,11.67
2023-02-12T12:42:34.288Z,11.83
2023-02-12T12:45:22.231Z,8.93
2023-02-12T12:48:12.908Z,10.00
2023-02-12T12:51:08.524Z,8.23
2023-02-12T12:53:49.933Z,11.27
2023-02-12T12:56:30.654Z,9.03
2023-02-12T12:59:30.296Z,9.07
2023-02-12T13:02:24.887Z,9.43
2023-02-12T13:05:26.030Z,8.60
2023-02-12T13:08:06.636Z,8.90
2023-02-12T13:10:43.162Z,7.43
2023-02-12T13:13:23.599Z,9.40
2023-02-12T13:15:59.132Z,10.53
2023-02-12T13:18:43.918Z,8.33
2023-02-12T13:21:24.243Z,9.47
2023-02-12T13:23:57.609Z,9.90
2023-02-12T13:26:33.101Z,9.97
2023-02-12T13:29:10.020Z,8.17
2023-02-12T13:31:51.056Z,7.97
2023-02-12T13:34:21.996Z,6.47
2023-02-12T13:36:54.635Z,6.67
2023-02-12T13:39:34.185Z,6.43
2023-02-12T13:42:19.586Z,5.57
2023-02-12T13:45:00.207Z,5.90
2023-02-12T13:47:38.124Z,5.90
2023-02-12T13:50:22.082Z,7.63
2023-02-12T13:53:01.585Z,7.93
2023-02-12T13:55:36.906Z,9.80
2023-02-12T13:58:37.631Z,9.93
2023-02-12T14:01:10.276Z,9.90
2023-02-12T14:03:40.778Z,9.60
2023-02-12T14:06:13.110Z,10.87
2023-02-12T14:08:48.007Z,12.27
2023-02-12T14:11:20.585Z,11.30
2023-02-12T14:13:56.915Z,12.07
2023-02-12T14:16:41.710Z,11.60
2023-02-12T14:19:41.443Z,13.93
2023-02-12T14:22:16.300Z,10.97
2023-02-12T14:24:58.800Z,13.87
2023-02-12T14:27:33.780Z,12.13
2023-02-12T14:30:28.012Z,12.47
2023-02-12T14:33:22.854Z,12.63
2023-02-12T14:36:17.016Z,13.43
2023-02-12T14:39:07.831Z,12.80
2023-02-12T14:41:41.985Z,13.73
2023-02-12T14:44:44.661Z,15.43
2023-02-12T14:47:34.093Z,14.70
2023-02-12T14:50:09.309Z,13.07
2023-02-12T14:52:43.510Z,15.97
2023-02-12T14:55:25.149Z,13.30
2023-02-12T14:58:01.671Z,13.07
2023-02-12T15:00:35.582Z,13.43
2023-02-12T15:03:18.958Z,12.40
2023-02-12T15:05:55.854Z,13.30
2023-02-12T15:08:44.054Z,12.87
2023-02-12T15:11:24.236Z,12.00
2023-02-12T15:14:02.183Z,11.50
2023-02-12T15:16:43.070Z,11.37
2023-02-12T15:19:27.446Z,11.53
2023-02-12T15:21:57.646Z,12.87
2023-02-12T15:24:29.376Z,10.73
2023-02-12T15:27:01.577Z,13.50
2023-02-12T15:29:43.949Z,11.67
2023-02-12T15:32:22.056Z,12.30
2023-02-12T15:34:53.116Z,14.07
2023-02-12T15:37:26.098Z,12.77
2023-02-12T15:39:59.365Z,13.23
2023-02-12T15:42:32.367Z,11.07
2023-02-12T15:45:24.819Z,12.23
2023-02-12T15:48:13.261Z,15.67
2023-02-12T15:50:54.228Z,11.90
2023-02-12T15:53:26.210Z,12.23
2023-02-12T15:55:56.471Z,13.47
2023-02-12T15:58:29.684Z,12.00
2023-02-12T16:01:04.626Z,13.50
2023-02-12T16:03:36.534Z,13.37
2023-02-12T16:06:11.429Z,11.57
2023-02-12T16:08:43.044Z,11.30
2023-02-12T16:11:16.642Z,10.87
2023-02-12T16:13:49.735Z,10.77
2023-02-12T16:16:26.353Z,11.40
2023-02-12T16:19:10.811Z,10.57
2023-02-12T16:21:41.970Z,10.47
2023-02-12T16:24:25.520Z,11.83
2023-02-12T16:26:55.710Z,11.93
2023-02-12T16:29:25.726Z,11.50
2023-02-12T16:32:01.335Z,10.63
2023-02-12T16:34:34.540Z,10.90
2023-02-12T16:37:05.082Z,9.80
2023-02-12T16:40:07.437Z,10.83
2023-02-12T16:42:37.214Z,8.93
2023-02-12T16:45:37.297Z,9.30
2023-02-12T16:48:18.939Z,11.77
2023-02-12T16:50:52.200Z,10.13
2023-02-12T16:53:43.767Z,12.63
2023-02-12T16:56:21.306Z,9.80
2023-02-12T16:58:55.316Z,8.83
2023-02-12T17:01:28.011Z,10.97
2023-02-12T17:04:02.436Z,10.53
2023-02-12T17:06:34.215Z,10.00
2023-02-12T17:09:04.098Z,9.97
2023-02-12T17:11:33.934Z,9.63
2023-02-12T17:14:03.695Z,11.30
2023-02-12T17:16:33.469Z,12.23
2023-02-12T17:19:05.848Z,10.37
2023-02-12T17:21:39.692Z,10.90
2023-02-12T17:24:14.353Z,12.03
2023-02-12T17:26:44.135Z,10.83
2023-02-12T17:29:14.026Z,11.73
2023-02-12T17:31:43.842Z,12.37
2023-02-12T17:34:17.344Z,13.23
2023-02-12T17:36:47.146Z,13.17
2023-02-12T17:39:19.479Z,12.23
2023-02-12T17:41:49.787Z,11.13
2023-02-12T17:44:19.645Z,12.30
2023-02-12T17:46:49.456Z,14.00
2023-02-12T17:49:21.914Z,13.70
2023-02-12T17:51:51.754Z,14.10
2023-02-12T17:54:21.740Z,12.30
2023-02-12T17:56:51.590Z,12.30
2023-02-12T17:59:21.526Z,13.43
2023-02-12T18:01:51.328Z,10.97
2023-02-12T18:04:23.747Z,12.60
2023-02-12T18:06:53.532Z,13.50
2023-02-12T18:09:23.296Z,11.90
2023-02-12T18:11:53.056Z,11.33
2023-02-12T18:14:22.912Z,11.53
2023-02-12T18:16:52.685Z,12.73
2023-02-12T18:19:25.060Z,13.43
2023-02-12T18:21:54.831Z,13.23
2023-02-12T18:24:24.704Z,13.03
2023-02-12T18:26:54.530Z,12.07
2023-02-12T18:29:24.279Z,11.77
2023-02-12T18:31:54.279Z,12.50
2023-02-12T18:34:27.011Z,13.60
2023-02-12T18:36:56.971Z,14.43
2023-02-12T18:39:26.762Z,14.87
2023-02-12T18:41:56.582Z,13.23
2023-02-12T18:44:26.341Z,14.10
2023-02-12T18:46:57.478Z,13.87
2023-02-12T18:49:30.281Z,12.97
2023-02-12T18:52:00.038Z,14.63
2023-02-12T18:54:29.821Z,13.73
2023-02-12T18:56:59.604Z,16.17
2023-02-12T18:59:29.463Z,17.07
2023-02-12T19:01:59.337Z,14.40
2023-02-12T19:04:31.791Z,14.70
2023-02-12T19:07:01.615Z,20.47
2023-02-12T19:09:31.365Z,16.77
2023-02-12T19:12:02.064Z,16.30
2023-02-12T19:14:31.998Z,17.07
2023-02-12T19:17:01.827Z,17.73
2023-02-12T19:19:34.219Z,18.23
2023-02-12T19:22:03.959Z,20.27
2023-02-12T19:24:45.944Z,17.13
2023-02-12T19:27:16.279Z,15.13
2023-02-12T19:29:46.394Z,16.57
2023-02-12T19:32:16.183Z,16.00
2023-02-12T19:34:48.840Z,18.03
2023-02-12T19:37:18.619Z,17.97
2023-02-12T19:39:48.373Z,15.67
2023-02-12T19:42:18.170Z,15.73
2023-02-12T19:44:48.028Z,18.70
2023-02-12T19:47:17.889Z,18.60
2023-02-12T19:49:50.366Z,21.37
2023-02-12T19:52:20.147Z,19.27
2023-02-12T19:54:49.900Z,17.33
2023-02-12T19:57:19.667Z,19.53
2023-02-12T19:59:49.562Z,19.23
2023-02-12T20:02:19.416Z,19.03
2023-02-12T20:04:51.788Z,19.60
2023-02-12T20:07:21.555Z,20.83
2023-02-12T20:09:53.363Z,18.87
2023-02-12T20:12:23.138Z,22.37
2023-02-12T20:14:52.903Z,23.37
2023-02-12T20:17:22.635Z,20.73
2023-02-12T20:19:54.980Z,20.27
2023-02-12T20:22:24.756Z,21.03
2023-02-12T20:24:54.529Z,23.60
2023-02-12T20:27:24.278Z,20.93
2023-02-12T20:29:54.059Z,22.63
2023-02-12T20:32:23.807Z,22.77
2023-02-12T20:34:56.576Z,19.97
2023-02-12T20:37:26.322Z,18.60
2023-02-12T20:39:56.084Z,20.43
2023-02-12T20:42:25.856Z,17.93
2023-02-12T20:44:55.658Z,17.27
2023-02-12T20:47:29.021Z,19.43
2023-02-12T20:50:01.459Z,17.87
2023-02-12T20:52:32.183Z,17.60
2023-02-12T20:55:01.980Z,16.63
2023-02-12T20:57:33.657Z,16.73
2023-02-12T21:00:03.522Z,19.80
2023-02-12T21:02:33.380Z,18.53
2023-02-12T21:05:06.019Z,19.80
2023-02-12T21:07:35.791Z,20.47
2023-02-12T21:10:05.554Z,17.13
2023-02-12T21:12:35.315Z,16.13
2023-02-12T21:15:05.211Z,17.63
2023-02-12T21:17:35.772Z,19.13
2023-02-12T21:20:12.604Z,17.03
2023-02-12T21:22:42.384Z,16.93
2023-02-12T21:25:12.241Z,16.13
2023-02-12T21:27:42.476Z,17.93
2023-02-12T21:30:12.887Z,17.23
2023-02-12T21:32:42.663Z,15.30
2023-02-12T21:35:15.024Z,15.70
2023-02-12T21:37:44.820Z,17.60
2023-02-12T21:40:15.479Z,15.90
2023-02-12T21:42:45.246Z,17.30
2023-02-12T21:45:15.000Z,16.80
2023-02-12T21:47:44.753Z,17.10
2023-02-12T21:50:17.224Z,16.77
2023-02-12T21:52:47.006Z,15.63
2023-02-12T21:55:16.859Z,16.77
2023-02-12T21:57:47.436Z,16.73
2023-02-12T22:00:18.644Z,17.00
2023-02-12T22:02:48.478Z,23.03
2023-02-12T22:05:20.980Z,15.97
2023-02-12T22:07:51.863Z,17.33
2023-02-12T22:10:22.001Z,15.57
2023-02-12T22:12:51.743Z,15.47
2023-02-12T22:15:21.624Z,14.73
2023-02-12T22:17:51.382Z,17.47
2023-02-12T22:20:23.894Z,17.20
2023-02-12T22:22:53.643Z,15.90
2023-02-12T22:25:23.409Z,18.43
2023-02-12T22:27:53.201Z,15.73
2023-02-12T22:30:23.247Z,14.87
2023-02-12T22:32:52.979Z,14.63
2023-02-12T22:35:25.332Z,14.13
2023-02-12T22:37:55.066Z,14.90
2023-02-12T22:40:25.054Z,14.77
2023-02-12T22:42:54.810Z,14.73
2023-02-12T22:45:24.624Z,15.60
2023-02-12T22:47:54.404Z,14.77
2023-02-12T22:50:26.840Z,15.83
2023-02-12T22:52:56.578Z,16.40
2023-02-12T22:55:26.324Z,18.23
2023-02-12T22:57:56.082Z,16.10
2023-02-12T23:00:25.973Z,15.27
2023-02-12T23:02:55.715Z,16.33
2023-02-12T23:05:28.266Z,15.30
2023-02-12T23:07:58.067Z,15.27
2023-02-12T23:10:27.826Z,17.03
2023-02-12T23:12:57.580Z,13.20
2023-02-12T23:15:27.430Z,14.27
2023-02-12T23:17:57.228Z,15.53
2023-02-12T23:20:29.662Z,17.17
2023-02-12T23:22:59.423Z,14.97
2023-02-12T23:25:29.200Z,14.57
2023-02-12T23:27:59.140Z,16.10
2023-02-12T23:30:28.978Z,16.03
2023-02-12T23:32:59.125Z,17.07
2023-02-12T23:35:31.720Z,16.43
2023-02-12T23:38:01.464Z,16.43
2023-02-12T23:40:31.233Z,16.33
2023-02-12T23:43:01.029Z,15.77
2023-02-12T23:45:31.580Z,15.90
2023-02-12T23:48:01.362Z,16.43
2023-02-12T23:50:33.777Z,15.33
2023-02-12T23:53:03.565Z,16.10
2023-02-12T23:55:33.326Z,15.43
2023-02-12T23:58:05.117Z,15.30
